Matilda — 9HZM9 — position and weather

sailwx.info

Track history (hours):
 
Tides and Currents Weather Stations Pressure Air Temp Water Temp Dewpoint Dewpoint Depression Visibility Wind Speed Wind Dir Waves Ship Positions

Matilda

Last reported at 2017-Oct-20 17:59 UTC. Time now 2017-Oct-20 18:15 UTC.
Position N 44°36' E 038°01'.

Length 250 m; draft 8 m.

Type: Tanker. MMSI: 249747000.

Date/timePositionNaut miles runAvg speedWind from/ knotsBaromVisibWave heightAir tempDewpointWater temp
2017-Oct-20 17:59N 44°36' E 038°01'1835.9
2017-Oct-20 17:30N 44°27' E 037°39'2 3.9
2017-Oct-20 16:59N 44°25' E 037°41'0 0.7
2017-Oct-20 16:31N 44°25' E 037°41'0 0.6
2017-Oct-20 16:00N 44°25' E 037°42'0 0.6
2017-Oct-20 15:30N 44°25' E 037°42'0 0.6
2017-Oct-20 15:01N 44°25' E 037°42'0 0.6
2017-Oct-20 14:31N 44°25' E 037°43'1 0.8
2017-Oct-20 13:30N 44°25' E 037°44'0 0.7
2017-Oct-20 13:00N 44°25' E 037°44'0 0.7
2017-Oct-20 12:31N 44°25' E 037°45'1 2.7
2017-Oct-20 12:01N 44°26' E 037°43'3 5.1
2017-Oct-20 11:31N 44°27' E 037°40'4 7.4
2017-Oct-20 11:01N 44°26' E 037°35'4 7.0
2017-Oct-20 10:31N 44°27' E 037°30'1 1.4
2017-Oct-20 10:00N 44°27' E 037°31'2342.1
2017-Oct-20 09:27N 44°36' E 038°01'0 0.0
2017-Oct-20 09:00N 44°36' E 038°01'2233.5
2017-Oct-20 08:21N 44°26' E 037°33'0 1.1
2017-Oct-20 08:00N 44°26' E 037°34'2245.0
2017-Oct-20 07:31N 44°36' E 038°01'0 0.1
2017-Oct-20 07:00N 44°36' E 038°01'2141.3
2017-Oct-20 06:30N 44°26' E 037°36'2040.0
2017-Oct-20 05:59N 44°36' E 038°01'0 0.0
2017-Oct-20 05:30N 44°36' E 038°01'0 0.0
2017-Oct-20 05:00N 44°36' E 038°01'1935.7
2017-Oct-20 04:29N 44°26' E 037°39'0 0.5
2017-Oct-20 04:01N 44°26' E 037°39'0 0.2
2017-Oct-20 03:30N 44°26' E 037°39'1 1.3
2017-Oct-20 03:01N 44°26' E 037°38'3 6.3
2017-Oct-20 02:31N 44°27' E 037°34'510.2
2017-Oct-20 02:01N 44°25' E 037°27'510.8
2017-Oct-20 01:30N 44°22' E 037°21'510.8
2017-Oct-20 01:00N 44°19' E 037°14'510.7
2017-Oct-20 00:31N 44°16' E 037°08'510.5
2017-Oct-20 00:01N 44°14' E 037°01'510.7
2017-Oct-19 23:31N 44°11' E 036°55'510.9
2017-Oct-19 23:01N 44°09' E 036°48'510.9
2017-Oct-19 22:31N 44°06' E 036°42'510.9
2017-Oct-19 22:01N 44°03' E 036°35'510.7
2017-Oct-19 21:30N 44°01' E 036°29'19410.9
2017-Oct-19 03:44N 42°45' E 032°23'210.8
2017-Oct-19 03:30N 42°44' E 032°20'611.1
2017-Oct-19 03:00N 42°42' E 032°13'510.8
2017-Oct-19 02:30N 42°40' E 032°07'510.7
2017-Oct-19 02:00N 42°38' E 031°60'510.8
2017-Oct-19 01:30N 42°36' E 031°53'511.1
2017-Oct-19 01:01N 42°34' E 031°46'611.1
2017-Oct-19 00:30N 42°32' E 031°39'510.9
2017-Oct-19 00:01N 42°29' E 031°33'510.8
2017-Oct-18 23:31N 42°28' E 031°26'510.9
2017-Oct-18 23:01N 42°26' E 031°19'510.9
2017-Oct-18 22:30N 42°23' E 031°12'511.0
2017-Oct-18 22:01N 42°21' E 031°06'611.1
2017-Oct-18 21:30N 42°19' E 030°59'611.4
2017-Oct-18 21:01N 42°16' E 030°52'1211.3
2017-Oct-18 19:57N 42°12' E 030°37'511.0
2017-Oct-18 19:30N 42°10' E 030°31'510.6
2017-Oct-18 19:01N 42°08' E 030°24'510.1
2017-Oct-18 18:31N 42°06' E 030°18'810.1
2017-Oct-18 17:43N 42°03' E 030°08'210.4
2017-Oct-18 17:29N 42°02' E 030°05'510.7
2017-Oct-18 17:00N 41°60' E 029°59'510.9
2017-Oct-18 16:30N 41°57' E 029°53'510.9
2017-Oct-18 16:01N 41°53' E 029°48'611.2
2017-Oct-18 15:29N 41°48' E 029°43'611.3
2017-Oct-18 14:56N 41°43' E 029°38'1111.5
2017-Oct-18 13:57N 41°34' E 029°29'511.3
2017-Oct-18 13:30N 41°30' E 029°25'510.7
2017-Oct-18 13:00N 41°26' E 029°21'510.5
2017-Oct-18 12:30N 41°21' E 029°16'510.5
2017-Oct-18 11:59N 41°18' E 029°11'611.7
2017-Oct-18 11:30N 41°13' E 029°07'24 7.9
2017-Oct-18 08:29N 40°52' E 028°53'4 6.8
2017-Oct-18 07:50N 40°50' E 028°47'3 0.9
2017-Oct-18 05:06N 40°48' E 028°45'2 0.9
2017-Oct-18 02:47N 40°46' E 028°47'6 5.5
2017-Oct-18 01:41N 40°41' E 028°52'1 6.6
2017-Oct-18 01:31N 40°40' E 028°52'0 0.6
2017-Oct-18 01:01N 40°40' E 028°52'1 1.1
2017-Oct-18 00:30N 40°41' E 028°52'1 1.1
2017-Oct-18 00:01N 40°41' E 028°53'1 1.1
2017-Oct-17 23:30N 40°42' E 028°53'1 1.1
2017-Oct-17 23:01N 40°42' E 028°53'1 1.2
2017-Oct-17 22:30N 40°43' E 028°54'1 1.2
2017-Oct-17 22:01N 40°43' E 028°54'1 1.3
2017-Oct-17 21:31N 40°44' E 028°55'1 1.1
2017-Oct-17 21:00N 40°44' E 028°55'1 1.1
2017-Oct-17 20:29N 40°45' E 028°56'1 1.2
2017-Oct-17 19:59N 40°45' E 028°56'1 1.2
2017-Oct-17 19:27N 40°46' E 028°56'1 1.3
2017-Oct-17 18:52N 40°46' E 028°57'1 1.3
2017-Oct-17 18:19N 40°47' E 028°57'0 1.3
2017-Oct-17 18:00N 40°47' E 028°57'1 1.3
2017-Oct-17 17:31N 40°48' E 028°57'1 1.3
2017-Oct-17 17:01N 40°49' E 028°58'0 0.9
2017-Oct-17 16:30N 40°49' E 028°58'1 1.2
2017-Oct-17 16:00N 40°49' E 028°57'3 6.5
2017-Oct-17 15:29N 40°50' E 028°52'9412.2
2017-Oct-17 07:46N 40°28' E 026°52'412.7
2017-Oct-17 07:29N 40°26' E 026°47'  
2017-Oct-13 17:18N 39°44' E 025°56'410.8
2017-Oct-13 16:55N 39°40' E 025°53'11012.1
2017-Oct-13 07:53N 37°51' E 025°40'513.4
2017-Oct-13 07:30N 37°47' E 025°42'713.6
2017-Oct-13 07:00N 37°40' E 025°45'713.4
2017-Oct-13 06:30N 37°34' E 025°48'713.2
2017-Oct-13 06:00N 37°28' E 025°51'  
Track history (hours):
 
Tides and Currents Weather Stations Pressure Air Temp Water Temp Dewpoint Dewpoint Depression Visibility Wind Speed Wind Dir Waves Ship Positions

Matilda

Last reported at 2017-Oct-20 17:59 UTC. Time now 2017-Oct-20 18:15 UTC.
Position N 44°36' E 038°01'.

Length 250 m; draft 8 m.

Type: Tanker. MMSI: 249747000.

Date/timePositionNaut miles runAvg speedWind from/ knotsBaromVisibWave heightAir tempDewpointWater temp
2017-Oct-20 17:59N 44°36' E 038°01'1835.9
2017-Oct-20 17:30N 44°27' E 037°39'2 3.9
2017-Oct-20 16:59N 44°25' E 037°41'0 0.7
2017-Oct-20 16:31N 44°25' E 037°41'0 0.6
2017-Oct-20 16:00N 44°25' E 037°42'0 0.6
2017-Oct-20 15:30N 44°25' E 037°42'0 0.6
2017-Oct-20 15:01N 44°25' E 037°42'0 0.6
2017-Oct-20 14:31N 44°25' E 037°43'1 0.8
2017-Oct-20 13:30N 44°25' E 037°44'0 0.7
2017-Oct-20 13:00N 44°25' E 037°44'0 0.7
2017-Oct-20 12:31N 44°25' E 037°45'1 2.7
2017-Oct-20 12:01N 44°26' E 037°43'3 5.1
2017-Oct-20 11:31N 44°27' E 037°40'4 7.4
2017-Oct-20 11:01N 44°26' E 037°35'4 7.0
2017-Oct-20 10:31N 44°27' E 037°30'1 1.4
2017-Oct-20 10:00N 44°27' E 037°31'2342.1
2017-Oct-20 09:27N 44°36' E 038°01'0 0.0
2017-Oct-20 09:00N 44°36' E 038°01'2233.5
2017-Oct-20 08:21N 44°26' E 037°33'0 1.1
2017-Oct-20 08:00N 44°26' E 037°34'2245.0
2017-Oct-20 07:31N 44°36' E 038°01'0 0.1
2017-Oct-20 07:00N 44°36' E 038°01'2141.3
2017-Oct-20 06:30N 44°26' E 037°36'2040.0
2017-Oct-20 05:59N 44°36' E 038°01'0 0.0
2017-Oct-20 05:30N 44°36' E 038°01'0 0.0
2017-Oct-20 05:00N 44°36' E 038°01'1935.7
2017-Oct-20 04:29N 44°26' E 037°39'0 0.5
2017-Oct-20 04:01N 44°26' E 037°39'0 0.2
2017-Oct-20 03:30N 44°26' E 037°39'1 1.3
2017-Oct-20 03:01N 44°26' E 037°38'3 6.3
2017-Oct-20 02:31N 44°27' E 037°34'510.2
2017-Oct-20 02:01N 44°25' E 037°27'510.8
2017-Oct-20 01:30N 44°22' E 037°21'510.8
2017-Oct-20 01:00N 44°19' E 037°14'510.7
2017-Oct-20 00:31N 44°16' E 037°08'510.5
2017-Oct-20 00:01N 44°14' E 037°01'510.7
2017-Oct-19 23:31N 44°11' E 036°55'510.9
2017-Oct-19 23:01N 44°09' E 036°48'510.9
2017-Oct-19 22:31N 44°06' E 036°42'510.9
2017-Oct-19 22:01N 44°03' E 036°35'510.7
2017-Oct-19 21:30N 44°01' E 036°29'19410.9
2017-Oct-19 03:44N 42°45' E 032°23'210.8
2017-Oct-19 03:30N 42°44' E 032°20'611.1
2017-Oct-19 03:00N 42°42' E 032°13'510.8
2017-Oct-19 02:30N 42°40' E 032°07'510.7
2017-Oct-19 02:00N 42°38' E 031°60'510.8
2017-Oct-19 01:30N 42°36' E 031°53'511.1
2017-Oct-19 01:01N 42°34' E 031°46'611.1
2017-Oct-19 00:30N 42°32' E 031°39'510.9
2017-Oct-19 00:01N 42°29' E 031°33'510.8
2017-Oct-18 23:31N 42°28' E 031°26'510.9
2017-Oct-18 23:01N 42°26' E 031°19'510.9
2017-Oct-18 22:30N 42°23' E 031°12'511.0
2017-Oct-18 22:01N 42°21' E 031°06'611.1
2017-Oct-18 21:30N 42°19' E 030°59'611.4
2017-Oct-18 21:01N 42°16' E 030°52'1211.3
2017-Oct-18 19:57N 42°12' E 030°37'511.0
2017-Oct-18 19:30N 42°10' E 030°31'510.6
2017-Oct-18 19:01N 42°08' E 030°24'510.1
2017-Oct-18 18:31N 42°06' E 030°18'810.1
2017-Oct-18 17:43N 42°03' E 030°08'210.4
2017-Oct-18 17:29N 42°02' E 030°05'510.7
2017-Oct-18 17:00N 41°60' E 029°59'510.9
2017-Oct-18 16:30N 41°57' E 029°53'510.9
2017-Oct-18 16:01N 41°53' E 029°48'611.2
2017-Oct-18 15:29N 41°48' E 029°43'611.3
2017-Oct-18 14:56N 41°43' E 029°38'1111.5
2017-Oct-18 13:57N 41°34' E 029°29'511.3
2017-Oct-18 13:30N 41°30' E 029°25'510.7
2017-Oct-18 13:00N 41°26' E 029°21'510.5
2017-Oct-18 12:30N 41°21' E 029°16'510.5
2017-Oct-18 11:59N 41°18' E 029°11'611.7
2017-Oct-18 11:30N 41°13' E 029°07'24 7.9
2017-Oct-18 08:29N 40°52' E 028°53'4 6.8
2017-Oct-18 07:50N 40°50' E 028°47'3 0.9
2017-Oct-18 05:06N 40°48' E 028°45'2 0.9
2017-Oct-18 02:47N 40°46' E 028°47'6 5.5
2017-Oct-18 01:41N 40°41' E 028°52'1 6.6
2017-Oct-18 01:31N 40°40' E 028°52'0 0.6
2017-Oct-18 01:01N 40°40' E 028°52'1 1.1
2017-Oct-18 00:30N 40°41' E 028°52'1 1.1
2017-Oct-18 00:01N 40°41' E 028°53'1 1.1
2017-Oct-17 23:30N 40°42' E 028°53'1 1.1
2017-Oct-17 23:01N 40°42' E 028°53'1 1.2
2017-Oct-17 22:30N 40°43' E 028°54'1 1.2
2017-Oct-17 22:01N 40°43' E 028°54'1 1.3
2017-Oct-17 21:31N 40°44' E 028°55'1 1.1
2017-Oct-17 21:00N 40°44' E 028°55'1 1.1
2017-Oct-17 20:29N 40°45' E 028°56'1 1.2
2017-Oct-17 19:59N 40°45' E 028°56'1 1.2
2017-Oct-17 19:27N 40°46' E 028°56'1 1.3
2017-Oct-17 18:52N 40°46' E 028°57'1 1.3
2017-Oct-17 18:19N 40°47' E 028°57'0 1.3
2017-Oct-17 18:00N 40°47' E 028°57'1 1.3
2017-Oct-17 17:31N 40°48' E 028°57'1 1.3
2017-Oct-17 17:01N 40°49' E 028°58'0 0.9
2017-Oct-17 16:30N 40°49' E 028°58'1 1.2
2017-Oct-17 16:00N 40°49' E 028°57'3 6.5
2017-Oct-17 15:29N 40°50' E 028°52'9412.2
2017-Oct-17 07:46N 40°28' E 026°52'412.7
2017-Oct-17 07:29N 40°26' E 026°47'  
2017-Oct-13 17:18N 39°44' E 025°56'410.8
2017-Oct-13 16:55N 39°40' E 025°53'11012.1
2017-Oct-13 07:53N 37°51' E 025°40'513.4
2017-Oct-13 07:30N 37°47' E 025°42'713.6
2017-Oct-13 07:00N 37°40' E 025°45'713.4
2017-Oct-13 06:30N 37°34' E 025°48'713.2
2017-Oct-13 06:00N 37°28' E 025°51'  

Dump ship's entire track history